createdAt,value
2023-03-18T00:01:38.673Z,3.00
2023-03-18T00:04:11.432Z,2.55
2023-03-18T00:06:43.729Z,2.28
2023-03-18T00:09:16.021Z,2.50
2023-03-18T00:11:48.669Z,2.40
2023-03-18T00:14:20.707Z,2.20
2023-03-18T00:16:53.585Z,2.30
2023-03-18T00:19:26.352Z,2.05
2023-03-18T00:21:59.312Z,2.50
2023-03-18T00:24:31.462Z,2.22
2023-03-18T00:27:04.127Z,2.00
2023-03-18T00:29:36.432Z,2.10
2023-03-18T00:32:09.147Z,2.20
2023-03-18T00:34:42.100Z,2.45
2023-03-18T00:37:18.960Z,1.98
2023-03-18T00:40:06.815Z,2.00
2023-03-18T00:42:47.553Z,2.25
2023-03-18T00:45:23.025Z,2.38
2023-03-18T00:47:55.115Z,2.10
2023-03-18T00:50:27.525Z,2.30
2023-03-18T00:53:00.767Z,2.30
2023-03-18T00:55:35.209Z,2.30
2023-03-18T00:58:09.040Z,1.90
2023-03-18T01:00:42.291Z,2.00
2023-03-18T01:03:14.878Z,2.15
2023-03-18T01:05:46.947Z,1.95
2023-03-18T01:08:19.489Z,1.90
2023-03-18T01:10:52.693Z,2.33
2023-03-18T01:13:25.940Z,2.05
2023-03-18T01:15:58.109Z,1.80
2023-03-18T01:18:31.142Z,2.03
2023-03-18T01:21:03.801Z,2.10
2023-03-18T01:23:37.436Z,1.98
2023-03-18T01:26:10.885Z,2.00
2023-03-18T01:28:43.703Z,2.00
2023-03-18T01:31:16.431Z,2.13
2023-03-18T01:33:49.310Z,2.40
2023-03-18T01:36:22.631Z,1.80
2023-03-18T01:38:57.911Z,2.08
2023-03-18T01:41:30.273Z,2.10
2023-03-18T01:44:04.669Z,2.47
2023-03-18T01:46:46.514Z,3.08
2023-03-18T01:49:24.181Z,2.40
2023-03-18T01:52:05.455Z,1.85
2023-03-18T01:54:46.600Z,1.83
2023-03-18T01:57:25.203Z,1.90
2023-03-18T01:59:59.019Z,1.77
2023-03-18T02:02:33.356Z,1.90
2023-03-18T02:05:08.023Z,1.90
2023-03-18T02:07:46.752Z,2.28
2023-03-18T02:10:20.568Z,2.10
2023-03-18T02:13:00.748Z,2.00
2023-03-18T02:15:46.554Z,1.70
2023-03-18T02:18:36.621Z,2.05
2023-03-18T02:21:42.824Z,2.40
2023-03-18T02:24:52.144Z,2.28
2023-03-18T02:27:36.511Z,2.22
2023-03-18T02:30:17.739Z,2.22
2023-03-18T02:32:56.461Z,2.00
2023-03-18T02:35:30.900Z,2.30
2023-03-18T02:38:05.084Z,1.92
2023-03-18T02:40:40.153Z,2.50
2023-03-18T02:43:23.231Z,1.90
2023-03-18T02:46:14.906Z,2.00
2023-03-18T02:49:08.728Z,1.75
2023-03-18T02:51:41.924Z,1.83
2023-03-18T02:54:17.546Z,1.92
2023-03-18T02:56:54.905Z,1.90
2023-03-18T02:59:27.375Z,1.88
2023-03-18T03:02:00.028Z,1.88
2023-03-18T03:04:32.997Z,2.25
2023-03-18T03:07:05.276Z,2.10
2023-03-18T03:09:37.484Z,1.80
2023-03-18T03:12:09.940Z,1.90
2023-03-18T03:14:42.445Z,2.10
2023-03-18T03:17:15.520Z,2.00
2023-03-18T03:19:48.131Z,2.00
2023-03-18T03:22:20.271Z,1.95
2023-03-18T03:24:53.596Z,2.20
2023-03-18T03:27:26.177Z,2.85
2023-03-18T03:29:59.556Z,1.75
2023-03-18T03:32:32.109Z,1.80
2023-03-18T03:35:05.529Z,2.00
2023-03-18T03:37:42.262Z,1.70
2023-03-18T03:40:17.757Z,1.80
2023-03-18T03:42:51.104Z,1.88
2023-03-18T03:45:23.795Z,1.70
2023-03-18T03:47:56.487Z,1.90
2023-03-18T03:50:29.172Z,1.90
2023-03-18T03:53:02.455Z,1.88
2023-03-18T03:55:36.353Z,1.80
2023-03-18T03:58:09.516Z,1.83
2023-03-18T04:00:41.577Z,1.67
2023-03-18T04:03:14.419Z,2.00
2023-03-18T04:05:46.517Z,1.85
2023-03-18T04:08:18.634Z,2.50
2023-03-18T04:10:50.850Z,1.65
2023-03-18T04:13:24.219Z,1.90
2023-03-18T04:15:57.141Z,1.60
2023-03-18T04:18:29.624Z,2.10
2023-03-18T04:21:01.844Z,2.10
2023-03-18T04:23:34.792Z,2.40
2023-03-18T04:26:07.125Z,2.20
2023-03-18T04:28:40.536Z,2.75
2023-03-18T04:31:12.598Z,2.70
2023-03-18T04:33:45.907Z,2.20
2023-03-18T04:36:18.513Z,2.53
2023-03-18T04:38:50.616Z,2.13
2023-03-18T04:41:23.089Z,2.20
2023-03-18T04:43:55.117Z,2.20
2023-03-18T04:46:30.163Z,2.47
2023-03-18T04:49:03.748Z,2.50
2023-03-18T04:51:36.684Z,2.63
2023-03-18T04:54:09.059Z,2.53
2023-03-18T04:56:43.775Z,2.53
2023-03-18T04:59:15.807Z,2.30
2023-03-18T05:01:49.076Z,2.20
2023-03-18T05:04:21.014Z,2.50
2023-03-18T05:06:53.311Z,2.45
2023-03-18T05:09:25.320Z,2.10
2023-03-18T05:11:58.240Z,2.28
2023-03-18T05:14:31.236Z,2.50
2023-03-18T05:17:04.515Z,2.50
2023-03-18T05:19:37.189Z,2.40
2023-03-18T05:22:10.221Z,2.10
2023-03-18T05:24:44.066Z,1.90
2023-03-18T05:27:18.708Z,2.50
2023-03-18T05:29:50.865Z,2.75
2023-03-18T05:32:23.177Z,3.38
2023-03-18T05:34:55.497Z,2.88
2023-03-18T05:37:27.507Z,3.00
2023-03-18T05:40:00.218Z,2.65
2023-03-18T05:42:32.268Z,2.60
2023-03-18T05:45:05.836Z,2.70
2023-03-18T05:47:38.796Z,2.53
2023-03-18T05:50:11.155Z,2.90
2023-03-18T05:52:44.215Z,2.90
2023-03-18T05:55:16.338Z,2.60
2023-03-18T05:57:48.703Z,2.50
2023-03-18T06:00:21.185Z,2.70
2023-03-18T06:02:53.910Z,4.10
2023-03-18T06:05:28.860Z,3.42
2023-03-18T06:08:02.941Z,2.88
2023-03-18T06:10:35.738Z,3.08
2023-03-18T06:13:08.010Z,2.67
2023-03-18T06:15:41.675Z,3.50
2023-03-18T06:18:14.973Z,2.88
2023-03-18T06:20:47.911Z,3.30
2023-03-18T06:23:20.013Z,3.60
2023-03-18T06:25:53.035Z,3.40
2023-03-18T06:28:25.379Z,3.75
2023-03-18T06:30:58.541Z,3.20
2023-03-18T06:34:28.684Z,3.50
2023-03-18T06:37:02.351Z,3.60
2023-03-18T06:39:35.677Z,3.45
2023-03-18T06:42:07.890Z,3.50
2023-03-18T06:44:44.357Z,3.63
2023-03-18T06:47:22.287Z,3.40
2023-03-18T06:49:54.553Z,3.00
2023-03-18T06:52:28.332Z,3.70
2023-03-18T06:55:00.499Z,3.30
2023-03-18T06:57:32.821Z,3.28
2023-03-18T07:00:13.690Z,3.70
2023-03-18T07:02:46.717Z,3.90
2023-03-18T07:05:20.856Z,3.33
2023-03-18T07:07:54.319Z,3.47
2023-03-18T07:10:29.783Z,3.35
2023-03-18T07:13:01.909Z,2.90
2023-03-18T07:15:34.482Z,2.72
2023-03-18T07:18:07.154Z,3.00
2023-03-18T07:20:41.983Z,2.58
2023-03-18T07:23:14.891Z,2.38
2023-03-18T07:25:47.060Z,2.53
2023-03-18T07:28:19.356Z,3.77
2023-03-18T07:30:54.144Z,3.57
2023-03-18T07:33:26.580Z,4.70
2023-03-18T07:36:00.552Z,3.10
2023-03-18T07:38:32.606Z,3.30
2023-03-18T07:41:06.170Z,2.77
2023-03-18T07:43:38.646Z,2.77
2023-03-18T07:46:11.346Z,3.07
2023-03-18T07:48:43.607Z,2.90
2023-03-18T07:51:16.571Z,2.60
2023-03-18T07:53:50.780Z,2.30
2023-03-18T07:56:22.986Z,3.20
2023-03-18T07:58:55.253Z,3.13
2023-03-18T08:01:27.792Z,3.20
2023-03-18T08:04:00.117Z,3.17
2023-03-18T08:06:32.939Z,2.60
2023-03-18T08:09:06.614Z,2.60
2023-03-18T08:11:39.911Z,2.67
2023-03-18T08:14:12.523Z,3.20
2023-03-18T08:16:44.916Z,3.07
2023-03-18T08:19:17.328Z,3.50
2023-03-18T08:21:50.070Z,3.30
2023-03-18T08:24:22.478Z,3.10
2023-03-18T08:26:56.208Z,2.50
2023-03-18T08:29:28.507Z,2.97
2023-03-18T08:32:01.360Z,3.00
2023-03-18T08:34:34.039Z,3.10
2023-03-18T08:37:08.423Z,2.90
2023-03-18T08:39:43.848Z,3.37
2023-03-18T08:42:17.107Z,3.10
2023-03-18T08:44:51.157Z,2.80
2023-03-18T08:47:25.153Z,3.37
2023-03-18T08:49:58.732Z,3.00
2023-03-18T08:52:32.470Z,3.10
2023-03-18T08:55:07.354Z,2.77
2023-03-18T08:57:40.715Z,2.23
2023-03-18T09:00:15.401Z,2.30
2023-03-18T09:02:48.731Z,2.63
2023-03-18T09:05:21.191Z,2.60
2023-03-18T09:07:53.331Z,2.60
2023-03-18T09:10:26.865Z,1.77
2023-03-18T09:13:05.525Z,1.80
2023-03-18T09:15:39.357Z,1.70
2023-03-18T09:18:13.631Z,1.80
2023-03-18T09:20:47.486Z,1.97
2023-03-18T09:23:19.856Z,2.00
2023-03-18T09:25:52.509Z,2.70
2023-03-18T09:28:26.750Z,3.43
2023-03-18T09:30:58.975Z,3.00
2023-03-18T09:33:31.506Z,2.70
2023-03-18T09:36:04.417Z,2.53
2023-03-18T09:38:37.192Z,3.00
2023-03-18T09:41:21.392Z,2.47
2023-03-18T09:44:24.958Z,2.33
2023-03-18T09:47:24.587Z,2.60
2023-03-18T09:50:38.409Z,2.30
2023-03-18T09:53:36.409Z,3.03
2023-03-18T09:56:30.296Z,2.30
2023-03-18T09:59:07.656Z,2.93
2023-03-18T10:02:00.870Z,2.00
2023-03-18T10:04:46.137Z,2.10
2023-03-18T10:07:40.363Z,1.63
2023-03-18T10:10:24.602Z,2.30
2023-03-18T10:13:17.329Z,1.97
2023-03-18T10:16:04.947Z,2.30
2023-03-18T10:18:44.803Z,2.37
2023-03-18T10:21:42.117Z,2.70
2023-03-18T10:24:46.160Z,2.43
2023-03-18T10:27:54.245Z,2.43
2023-03-18T10:30:55.900Z,2.23
2023-03-18T10:33:58.995Z,2.40
2023-03-18T10:37:38.555Z,2.57
2023-03-18T10:40:24.681Z,1.80
2023-03-18T10:42:58.056Z,2.00
2023-03-18T10:45:33.873Z,1.90
2023-03-18T10:48:15.270Z,1.73
2023-03-18T10:50:55.952Z,1.83
2023-03-18T10:54:22.968Z,2.10
2023-03-18T10:57:14.714Z,2.40
2023-03-18T10:59:51.474Z,1.60
2023-03-18T11:02:36.188Z,2.33
2023-03-18T11:05:26.306Z,2.67
2023-03-18T11:08:06.327Z,1.60
2023-03-18T11:10:58.592Z,2.00
2023-03-18T11:13:56.139Z,2.20
2023-03-18T11:16:38.316Z,2.10
2023-03-18T11:19:40.151Z,2.20
2023-03-18T11:22:24.360Z,1.80
2023-03-18T11:25:11.726Z,1.57
2023-03-18T11:27:52.280Z,1.80
2023-03-18T11:30:44.331Z,1.90
2023-03-18T11:33:19.966Z,1.87
2023-03-18T11:36:07.142Z,2.00
2023-03-18T11:38:44.156Z,1.90
2023-03-18T11:41:30.302Z,2.00
2023-03-18T11:44:15.536Z,1.73
2023-03-18T11:47:15.777Z,2.10
2023-03-18T11:50:05.529Z,1.80
2023-03-18T11:53:09.039Z,2.40
2023-03-18T11:55:50.385Z,1.80
2023-03-18T11:58:38.310Z,1.60
2023-03-18T12:01:41.011Z,1.73
2023-03-18T12:05:13.892Z,1.87
2023-03-18T12:08:40.474Z,2.37
2023-03-18T12:11:54.110Z,2.23
2023-03-18T12:15:16.824Z,1.83
2023-03-18T12:18:16.401Z,1.77
2023-03-18T12:21:29.836Z,1.87
2023-03-18T12:24:54.741Z,2.30
2023-03-18T12:28:20.417Z,1.57
2023-03-18T12:31:12.030Z,2.10
2023-03-18T12:34:03.178Z,2.20
2023-03-18T12:36:44.735Z,1.77
2023-03-18T12:40:07.803Z,1.80
2023-03-18T12:43:07.211Z,1.40
2023-03-18T12:46:33.087Z,1.87
2023-03-18T12:49:27.834Z,2.03
2023-03-18T12:52:30.335Z,2.00
2023-03-18T12:55:23.425Z,1.60
2023-03-18T12:58:05.910Z,2.30
2023-03-18T13:00:50.185Z,1.80
2023-03-18T13:03:40.262Z,2.23
2023-03-18T13:06:24.855Z,1.53
2023-03-18T13:09:26.872Z,1.53
2023-03-18T13:12:34.711Z,2.80
2023-03-18T13:15:31.278Z,22.43
2023-03-18T13:18:29.721Z,1.90
2023-03-18T13:21:25.407Z,2.03
2023-03-18T13:24:38.943Z,1.43
2023-03-18T13:27:32.588Z,1.87
2023-03-18T13:30:56.247Z,1.70
2023-03-18T13:33:45.648Z,1.80
2023-03-18T13:37:12.384Z,2.20
2023-03-18T13:40:10.262Z,1.93
2023-03-18T13:43:03.911Z,1.47
2023-03-18T13:45:48.122Z,1.40
2023-03-18T13:48:36.966Z,1.40
2023-03-18T13:51:41.504Z,1.83
2023-03-18T13:54:21.992Z,1.80
2023-03-18T13:57:33.399Z,1.47
2023-03-18T14:00:25.402Z,1.57
2023-03-18T14:03:13.488Z,1.97
2023-03-18T14:06:08.841Z,1.70
2023-03-18T14:08:53.576Z,1.80
2023-03-18T14:11:45.205Z,1.70
2023-03-18T14:14:51.404Z,1.67
2023-03-18T14:17:39.086Z,1.73
2023-03-18T14:20:20.491Z,1.60
2023-03-18T14:23:17.454Z,1.10
2023-03-18T14:26:07.054Z,1.20
2023-03-18T14:29:07.923Z,1.40
2023-03-18T14:31:59.443Z,1.67
2023-03-18T14:34:52.739Z,1.30
2023-03-18T14:37:34.178Z,1.57
2023-03-18T14:40:26.739Z,1.60
2023-03-18T14:43:02.497Z,1.70
2023-03-18T14:45:45.094Z,1.10
2023-03-18T14:48:29.376Z,1.40
2023-03-18T14:51:22.098Z,1.50
2023-03-18T14:54:08.102Z,1.40
2023-03-18T14:56:56.912Z,1.30
2023-03-18T14:59:34.153Z,1.57
2023-03-18T15:02:15.718Z,1.40
2023-03-18T15:04:56.836Z,1.50
2023-03-18T15:07:37.377Z,2.20
2023-03-18T15:10:17.298Z,2.23
2023-03-18T15:16:20.503Z,3.30
2023-03-18T15:19:03.729Z,2.00
2023-03-18T15:21:36.489Z,2.37
2023-03-18T15:24:09.788Z,2.27
2023-03-18T15:26:55.187Z,2.50
2023-03-18T15:29:35.857Z,2.00
2023-03-18T15:32:18.805Z,2.40
2023-03-18T15:35:15.468Z,2.50
2023-03-18T15:38:19.296Z,2.63
2023-03-18T15:41:14.296Z,2.10
2023-03-18T15:43:52.255Z,2.47
2023-03-18T15:46:28.605Z,2.50
2023-03-18T15:49:05.567Z,2.30
2023-03-18T15:51:48.154Z,4.03
2023-03-18T15:54:49.333Z,2.57
2023-03-18T15:57:36.370Z,2.30
2023-03-18T16:00:13.542Z,2.20
2023-03-18T16:02:46.627Z,2.60
2023-03-18T16:05:26.039Z,2.90
2023-03-18T16:07:59.428Z,3.30
2023-03-18T16:10:32.745Z,2.70
2023-03-18T16:13:05.567Z,2.57
2023-03-18T16:15:42.564Z,2.80
2023-03-18T16:18:18.201Z,3.03
2023-03-18T16:20:52.930Z,3.20
2023-03-18T16:23:25.364Z,4.20
2023-03-18T16:25:59.122Z,3.50
2023-03-18T16:28:31.403Z,2.90
2023-03-18T16:31:03.885Z,2.47
2023-03-18T16:33:36.589Z,2.77
2023-03-18T16:36:22.104Z,2.47
2023-03-18T16:39:34.022Z,2.90
2023-03-18T16:42:06.963Z,2.80
2023-03-18T16:44:40.537Z,3.33
2023-03-18T16:47:26.543Z,2.87
2023-03-18T16:49:59.538Z,3.22
2023-03-18T16:52:32.630Z,2.63
2023-03-18T16:55:05.396Z,2.78
2023-03-18T16:57:47.858Z,2.50
2023-03-18T17:00:32.948Z,2.83
2023-03-18T17:03:05.124Z,3.40
2023-03-18T17:05:37.799Z,2.75
2023-03-18T17:08:10.898Z,3.33
2023-03-18T17:10:44.930Z,3.42
2023-03-18T17:13:23.981Z,3.60
2023-03-18T17:15:59.654Z,11.05
2023-03-18T17:18:33.267Z,4.55
2023-03-18T17:21:06.877Z,4.85
2023-03-18T17:23:40.978Z,4.47
2023-03-18T17:26:16.849Z,4.10
2023-03-18T17:28:50.447Z,3.85
2023-03-18T17:31:24.919Z,3.00
2023-03-18T17:33:57.108Z,3.05
2023-03-18T17:36:29.407Z,3.05
2023-03-18T17:39:01.848Z,2.60
2023-03-18T17:41:34.672Z,2.47
2023-03-18T17:44:30.052Z,3.13
2023-03-18T17:47:03.432Z,2.40
2023-03-18T17:49:49.321Z,2.60
2023-03-18T17:52:24.222Z,3.88
2023-03-18T17:54:56.988Z,3.20
2023-03-18T17:57:29.281Z,3.05
2023-03-18T18:00:04.006Z,3.00
2023-03-18T18:02:46.499Z,3.97
2023-03-18T18:05:22.241Z,4.07
2023-03-18T18:07:55.267Z,4.45
2023-03-18T18:10:29.374Z,5.28
2023-03-18T18:13:23.250Z,6.63
2023-03-18T18:15:55.694Z,10.30
2023-03-18T18:18:29.632Z,19.27
2023-03-18T18:21:06.370Z,85.40
2023-03-18T18:23:48.915Z,73.15
2023-03-18T18:26:22.268Z,63.70
2023-03-18T18:28:55.214Z,45.92
2023-03-18T18:31:29.033Z,33.90
2023-03-18T18:34:05.414Z,18.55
2023-03-18T18:36:38.129Z,12.30
2023-03-18T18:39:11.387Z,8.10
2023-03-18T18:41:44.298Z,7.25
2023-03-18T18:44:18.344Z,4.22
2023-03-18T18:46:51.147Z,4.10
2023-03-18T18:49:24.804Z,4.63
2023-03-18T18:51:57.419Z,3.88
2023-03-18T18:54:32.916Z,3.95
2023-03-18T18:57:06.028Z,5.45
2023-03-18T18:59:55.101Z,3.58
2023-03-18T19:02:36.549Z,4.00
2023-03-18T19:05:12.309Z,3.40
2023-03-18T19:07:46.783Z,2.72
2023-03-18T19:10:20.151Z,3.28
2023-03-18T19:12:53.535Z,3.50
2023-03-18T19:15:27.086Z,3.13
2023-03-18T19:18:00.422Z,3.20
2023-03-18T19:20:34.772Z,2.95
2023-03-18T19:23:16.105Z,3.60
2023-03-18T19:25:55.368Z,3.40
2023-03-18T19:28:58.891Z,3.83
2023-03-18T19:31:35.392Z,3.45
2023-03-18T19:34:22.215Z,3.83
2023-03-18T19:36:56.887Z,4.50
2023-03-18T19:39:30.341Z,4.50
2023-03-18T19:42:03.645Z,3.50
2023-03-18T19:44:37.141Z,3.58
2023-03-18T19:47:18.572Z,3.28
2023-03-18T19:49:55.599Z,3.50
2023-03-18T19:52:30.467Z,3.95
2023-03-18T19:55:08.459Z,3.70
2023-03-18T19:57:50.054Z,3.85
2023-03-18T20:00:26.126Z,3.20
2023-03-18T20:02:58.889Z,3.40
2023-03-18T20:05:32.491Z,3.00
2023-03-18T20:08:06.808Z,3.30
2023-03-18T20:10:44.917Z,3.33
2023-03-18T20:13:22.151Z,3.10
2023-03-18T20:15:55.733Z,3.70
2023-03-18T20:18:28.948Z,3.13
2023-03-18T20:21:02.341Z,3.03
2023-03-18T20:23:37.124Z,3.40
2023-03-18T20:26:10.864Z,3.40
2023-03-18T20:28:46.007Z,3.35
2023-03-18T20:31:20.862Z,3.03
2023-03-18T20:33:54.101Z,3.97
2023-03-18T20:40:39.152Z,3.65
2023-03-18T20:43:20.550Z,4.45
2023-03-18T20:45:58.533Z,4.40
2023-03-18T20:48:33.486Z,4.60
2023-03-18T20:51:20.364Z,4.75
2023-03-18T20:53:58.986Z,5.68
2023-03-18T20:56:35.425Z,4.90
2023-03-18T20:59:10.466Z,4.70
2023-03-18T21:01:43.986Z,5.40
2023-03-18T21:04:17.014Z,5.38
2023-03-18T21:06:50.104Z,4.90
2023-03-18T21:09:23.846Z,5.07
2023-03-18T21:11:56.403Z,5.35
2023-03-18T21:14:29.189Z,4.90
2023-03-18T21:17:02.244Z,4.65
2023-03-18T21:19:36.573Z,4.50
2023-03-18T21:22:13.985Z,4.85
2023-03-18T21:24:58.753Z,6.20
2023-03-18T21:27:31.961Z,6.40
2023-03-18T21:30:05.367Z,5.90
2023-03-18T21:32:40.746Z,5.72
2023-03-18T21:35:23.791Z,5.55
2023-03-18T21:37:57.801Z,4.97
2023-03-18T21:40:30.963Z,6.30
2023-03-18T21:43:24.757Z,5.82
2023-03-18T21:46:04.072Z,4.53
2023-03-18T21:48:41.716Z,4.47
2023-03-18T21:51:38.573Z,4.45
2023-03-18T21:54:21.540Z,4.00
2023-03-18T21:56:56.070Z,4.30
2023-03-18T21:59:28.560Z,3.80
2023-03-18T22:02:01.336Z,3.90
2023-03-18T22:04:33.646Z,3.70
2023-03-18T22:07:07.905Z,5.20
2023-03-18T22:09:44.930Z,4.07
2023-03-18T22:12:32.065Z,5.70
2023-03-18T22:15:25.933Z,6.55
2023-03-18T22:18:05.712Z,7.10
2023-03-18T22:20:39.551Z,6.70
2023-03-18T22:23:18.594Z,6.95
2023-03-18T22:25:56.104Z,5.63
2023-03-18T22:28:29.275Z,5.55
2023-03-18T22:31:03.933Z,5.88
2023-03-18T22:33:43.596Z,5.95
2023-03-18T22:36:18.168Z,5.03
2023-03-18T22:38:51.221Z,5.05
2023-03-18T22:41:31.199Z,5.90
2023-03-18T22:44:03.797Z,4.80
2023-03-18T22:46:36.834Z,5.20
2023-03-18T22:49:08.855Z,5.07
2023-03-18T22:51:42.393Z,6.00
2023-03-18T22:54:18.964Z,5.57
2023-03-18T22:56:51.534Z,5.45
2023-03-18T22:59:23.658Z,5.68
2023-03-18T23:01:56.086Z,6.07
2023-03-18T23:04:30.236Z,5.80
2023-03-18T23:07:02.996Z,6.30
2023-03-18T23:09:44.226Z,5.30
2023-03-18T23:12:25.764Z,5.75
2023-03-18T23:14:59.820Z,6.80
2023-03-18T23:17:36.465Z,5.40
2023-03-18T23:20:09.582Z,5.20
2023-03-18T23:22:43.989Z,5.22
2023-03-18T23:25:17.947Z,5.25
2023-03-18T23:27:50.498Z,5.28
2023-03-18T23:30:22.799Z,5.15
2023-03-18T23:32:54.979Z,5.25
2023-03-18T23:35:27.954Z,5.50
2023-03-18T23:38:00.205Z,5.68
2023-03-18T23:40:33.193Z,5.55
2023-03-18T23:43:06.300Z,5.25
2023-03-18T23:45:40.117Z,4.80
2023-03-18T23:48:12.468Z,5.22
2023-03-18T23:50:45.639Z,5.07
2023-03-18T23:53:17.857Z,5.47
2023-03-18T23:55:51.016Z,4.72
2023-03-18T23:58:23.350Z,6.10
